sim
Sign-in with your pilot id or email,
or register
Callsign
Passwort

Schedule Details

Flight Number: RYR5714 (4)
Departure: Weeze Airport (EDLV) at 16:10
Arrival: Thessaloniki International Airport (LGTS) at 18:55
Route: Ryanair Passenger Schedule. Enter filed route here before submitting Pirep.

Weather Information
Getting current METAR information for EDLV 211520Z 25009KT 9999 BKN034 13/07 Q1026
Getting current METAR information for LGTS 211520Z 35006KT CAVOK 16/00 Q1021 NOSIG

Schedule Frequency

Route Map